Etusivu
METAR-TAF:

METAR-TAF

Lentoasemat :

N'Djamena, Tšad

N’Djamenan kansainvälinen lentoasema

Leveyspiiri: 12-08N, Pituuspiiri: 015-02E, korkeus merenpinnasta: 295 m

Tämänhetkinen sää

Tämä raportti tehtiin 56 minuuttia sitten, kello 06.00 UTC
Tuuli 5 kn pohjoisesta/koillisesta
Lämpötila 12°C
Kosteus 28%
Ilmanpaine 1013 hPa
Näkyvyys: 8000 m

METAR: FTTJ 200600Z 02005KT 8000 NSC 12/M06 Q1013 NOSIG

Aika: 07:56 (06:56 UTC)

Sääennuste

Tämä raportti tehtiin 1 tunti ja 50 minuuttia sitten, kello 05.06 UTC
Ennuste voimassa 20. päivästä klo 06 UTC - 21. päivään klo 12 UTC
Tuuli 10 kn koillisesta
Näkyvyys 10 km tai enemmän
ei pilviä alle 1500 m:ssä eikä cumulonimbus-pilviä
Tulossa
20. päivästä klo 15 UTC - 20. päivään klo 17 UTC
Tuuli 8 kn pohjoisen/luoteesta
Ajoittain
21. päivästä klo 08 UTC - 21. päivään klo 12 UTC
Tuuli 12 kn idästä/koillisesta

TAF: FTTJ 200506Z 2006/2112 04010KT CAVOK BECMG 2015/2017 34008KT TEMPO 2108/2112 06012KT

Säähavainnot ja -ennusteet yli 4000 lentoasemalta (METAR- ja TAF-raportit).

Käytössä olevat sääasemat on merkitty karttaan keltaisilla ja punaisilla pisteillä.

Aseta hiiri pisteen päälle nähdäksesi sääaseman nimen.

Klikkaa sitten nähdäksesi säähavainnot ja -ennusteet.

Kartan vaihtaminen: klikkaa mustalla rastilla varustettuja vihreitä pisteitä, niin voit zoomata sisään; viivalla varustettua vihreää pistettä, niin voit zoomata ulos tai vihreitä nuolia, niin pääset viereisille kartoille.


METAR-TAF: